Time;durP1;ratioP1;P1;durP2;ratioP2;P2;SDS_P1;SDS_P2;PMS_P1;PMS_P2;Temp;Humidity;BMP_temperature;BMP_pressure;BME280_temperature;BME280_humidity;BME280_pressure;Samples;Min_cycle;Max_cycle;Signal;HPM_P1;HPM_P2
2022/06/02 00:01:10;;;;;;;15.67;14.17;;;;;;;;;;5033508;28;20204;-71
2022/06/02 00:03:41;;;;;;;14.90;13.57;;;;;;;;;;5035860;28;20204;-72
2022/06/02 00:06:13;;;;;;;14.73;13.33;;;;;;;;;;5033309;28;20244;-72
2022/06/02 00:08:50;;;;;;;14.87;13.47;;;;;;;;;;5035632;28;20228;-72
2022/06/02 00:11:29;;;;;;;15.70;14.00;;;;;;;;;;5034975;28;20620;-71
2022/06/02 00:14:05;;;;;;;14.37;12.97;;;;;;;;;;5035645;28;20246;-72
2022/06/02 00:16:39;;;;;;;14.37;12.97;;;;;;;;;;5033738;28;20257;-72
2022/06/02 00:19:11;;;;;;;13.93;12.47;;;;;;;;;;5032965;28;20232;-72
2022/06/02 00:21:43;;;;;;;14.10;12.70;;;;;;;;;;5033755;28;20601;-72
2022/06/02 00:24:14;;;;;;;15.00;12.80;;;;;;;;;;5034925;28;20573;-72
2022/06/02 00:26:47;;;;;;;14.47;13.13;;;;;;;;;;5030044;28;20208;-72
2022/06/02 00:29:20;;;;;;;13.80;12.60;;;;;;;;;;5035002;28;20220;-73
2022/06/02 00:31:53;;;;;;;15.07;13.57;;;;;;;;;;5035846;28;20207;-72
2022/06/02 00:34:27;;;;;;;16.63;13.10;;;;;;;;;;5033090;28;20215;-72
2022/06/02 00:37:06;;;;;;;15.17;13.77;;;;;;;;;;5034549;28;20204;-72
2022/06/02 00:39:35;;;;;;;15.57;14.07;;;;;;;;;;5034717;28;20242;-72
2022/06/02 00:42:07;;;;;;;14.63;13.33;;;;;;;;;;5035604;28;20258;-72
2022/06/02 00:44:38;;;;;;;14.93;13.33;;;;;;;;;;5034166;28;20231;-72
2022/06/02 00:47:26;;;;;;;15.30;13.87;;;;;;;;;;5034310;28;20615;-72
2022/06/02 00:50:00;;;;;;;15.97;14.43;;;;;;;;;;5033820;28;20281;-72
2022/06/02 00:52:31;;;;;;;15.20;13.80;;;;;;;;;;5032818;28;20195;-72
2022/06/02 00:58:02;;;;;;;15.30;13.83;;;;;;;;;;5031350;28;20204;-72
2022/06/02 01:00:42;;;;;;;15.20;13.80;;;;;;;;;;5034613;28;20211;-72
2022/06/02 01:03:14;;;;;;;15.23;13.83;;;;;;;;;;5033756;28;20199;-73
2022/06/02 01:06:01;;;;;;;15.63;14.23;;;;;;;;;;5033185;28;20235;-72
2022/06/02 01:08:39;;;;;;;15.10;13.73;;;;;;;;;;5027155;28;20242;-72
2022/06/02 01:11:11;;;;;;;15.97;14.47;;;;;;;;;;5034069;28;20208;-72
2022/06/02 01:13:48;;;;;;;16.20;14.60;;;;;;;;;;5042279;28;20548;-72
2022/06/02 01:16:20;;;;;;;16.47;14.77;;;;;;;;;;5033370;28;20223;-72
2022/06/02 01:18:56;;;;;;;16.43;14.83;;;;;;;;;;5036756;28;20227;-73
2022/06/02 01:21:45;;;;;;;15.63;14.10;;;;;;;;;;5030925;28;20279;-72
2022/06/02 01:24:30;;;;;;;15.50;14.10;;;;;;;;;;5026690;28;20219;-72
2022/06/02 01:27:17;;;;;;;16.33;14.73;;;;;;;;;;5033579;28;20208;-72
2022/06/02 01:30:04;;;;;;;16.80;15.13;;;;;;;;;;5044940;28;20271;-72
2022/06/02 01:32:36;;;;;;;17.23;15.53;;;;;;;;;;5026222;28;20202;-72
2022/06/02 01:35:08;;;;;;;17.20;15.53;;;;;;;;;;5033779;28;20219;-72
2022/06/02 01:37:40;;;;;;;17.77;16.00;;;;;;;;;;5038674;28;20676;-72
2022/06/02 01:40:15;;;;;;;17.73;16.03;;;;;;;;;;5029282;28;20211;-72
2022/06/02 01:42:51;;;;;;;18.27;16.57;;;;;;;;;;5030313;28;20579;-72
2022/06/02 01:45:35;;;;;;;19.07;17.17;;;;;;;;;;5032021;28;20223;-72
2022/06/02 01:48:11;;;;;;;20.17;18.17;;;;;;;;;;5045001;28;20226;-72
2022/06/02 01:50:46;;;;;;;19.00;17.17;;;;;;;;;;5037035;28;20203;-72
2022/06/02 01:53:17;;;;;;;19.50;17.53;;;;;;;;;;5036671;28;20606;-72
2022/06/02 01:55:58;;;;;;;20.40;18.30;;;;;;;;;;5037060;28;20285;-72
2022/06/02 01:58:34;;;;;;;21.00;18.90;;;;;;;;;;5037340;28;20570;-72
2022/06/02 02:01:05;;;;;;;19.70;17.80;;;;;;;;;;5031150;28;20198;-72
2022/06/02 02:03:41;;;;;;;19.97;17.97;;;;;;;;;;5039566;28;20727;-72
2022/06/02 02:06:14;;;;;;;21.03;18.83;;;;;;;;;;5033886;28;20283;-73
2022/06/02 02:08:55;;;;;;;21.00;18.30;;;;;;;;;;5050152;28;20281;-72
2022/06/02 02:11:33;;;;;;;20.10;18.20;;;;;;;;;;5030966;28;20213;-72
2022/06/02 02:14:06;;;;;;;21.47;19.27;;;;;;;;;;5022782;28;20621;-72
2022/06/02 02:16:39;;;;;;;21.93;19.80;;;;;;;;;;5034072;28;20256;-72
2022/06/02 02:19:13;;;;;;;21.37;19.27;;;;;;;;;;5031321;28;20256;-72
2022/06/02 02:21:46;;;;;;;20.40;18.37;;;;;;;;;;5029296;28;20204;-72
2022/06/02 02:24:23;;;;;;;20.10;18.13;;;;;;;;;;5031954;28;20223;-72
2022/06/02 02:26:55;;;;;;;18.10;16.27;;;;;;;;;;5032465;28;20617;-72
2022/06/02 02:29:28;;;;;;;19.87;17.87;;;;;;;;;;5046573;28;20617;-72
2022/06/02 02:32:02;;;;;;;18.07;16.27;;;;;;;;;;5033180;28;20210;-72
2022/06/02 02:34:38;;;;;;;19.57;17.00;;;;;;;;;;5031433;28;20228;-72
2022/06/02 02:37:10;;;;;;;19.60;17.67;;;;;;;;;;5033185;28;20254;-72
2022/06/02 02:39:43;;;;;;;19.83;17.93;;;;;;;;;;5030155;28;20619;-72
2022/06/02 02:42:15;;;;;;;19.13;17.23;;;;;;;;;;5033542;28;20204;-72
2022/06/02 02:44:47;;;;;;;21.20;19.07;;;;;;;;;;5034181;28;20706;-72
2022/06/02 02:47:20;;;;;;;19.07;17.27;;;;;;;;;;5037344;28;20203;-72
2022/06/02 02:49:51;;;;;;;19.90;18.00;;;;;;;;;;5043199;28;20216;-72
2022/06/02 02:52:24;;;;;;;19.53;17.67;;;;;;;;;;5031546;28;20264;-72
2022/06/02 02:54:55;;;;;;;19.03;17.23;;;;;;;;;;5033013;28;20224;-72
2022/06/02 02:57:27;;;;;;;19.60;17.70;;;;;;;;;;5032196;28;20204;-72
2022/06/02 02:59:58;;;;;;;20.57;18.47;;;;;;;;;;5032432;28;20200;-72
2022/06/02 03:02:29;;;;;;;19.73;17.73;;;;;;;;;;5033899;28;20216;-72
2022/06/02 03:05:02;;;;;;;18.63;16.83;;;;;;;;;;5032622;28;20242;-72
2022/06/02 03:07:31;;;;;;;19.13;17.23;;;;;;;;;;5036593;28;20258;-72
2022/06/02 03:10:05;;;;;;;20.27;18.27;;;;;;;;;;5041379;28;20282;-72
2022/06/02 03:12:40;;;;;;;20.27;18.27;;;;;;;;;;5031202;28;20254;-72
2022/06/02 03:15:21;;;;;;;21.33;19.20;;;;;;;;;;5031506;28;20227;-73
2022/06/02 03:18:01;;;;;;;21.23;19.03;;;;;;;;;;5029424;28;20211;-72
2022/06/02 03:20:39;;;;;;;21.20;18.90;;;;;;;;;;5031319;28;20200;-72
2022/06/02 03:23:17;;;;;;;20.90;18.70;;;;;;;;;;5031463;28;20207;-72
2022/06/02 03:25:47;;;;;;;20.97;18.87;;;;;;;;;;5031843;28;20717;-72
2022/06/02 03:28:20;;;;;;;20.30;18.33;;;;;;;;;;5033044;28;20211;-72
2022/06/02 03:30:52;;;;;;;21.30;19.10;;;;;;;;;;5031044;28;20721;-73
2022/06/02 03:33:32;;;;;;;19.97;18.07;;;;;;;;;;5031765;28;20610;-72
2022/06/02 03:36:05;;;;;;;20.67;18.47;;;;;;;;;;5031309;28;20273;-72
2022/06/02 03:38:43;;;;;;;18.50;16.70;;;;;;;;;;5033009;28;20270;-72
2022/06/02 03:41:22;;;;;;;19.80;17.80;;;;;;;;;;5028525;28;20262;-72
2022/06/02 03:43:53;;;;;;;20.00;17.97;;;;;;;;;;5032401;28;20203;-72
2022/06/02 03:46:30;;;;;;;19.60;17.53;;;;;;;;;;5030699;28;20204;-72
2022/06/02 03:49:10;;;;;;;21.97;19.57;;;;;;;;;;5032136;28;20255;-72
2022/06/02 03:51:43;;;;;;;23.27;20.77;;;;;;;;;;5030436;28;20209;-72
2022/06/02 03:54:20;;;;;;;24.63;21.10;;;;;;;;;;5035121;28;20678;-72
2022/06/02 03:57:06;;;;;;;24.63;21.47;;;;;;;;;;5035014;28;20663;-72
2022/06/02 03:59:43;;;;;;;26.60;23.67;;;;;;;;;;5034841;28;20200;-73
2022/06/02 04:02:13;;;;;;;28.30;25.30;;;;;;;;;;5034902;28;20204;-72
2022/06/02 04:04:49;;;;;;;31.73;26.07;;;;;;;;;;5035266;28;20318;-72
2022/06/02 04:07:34;;;;;;;33.00;27.03;;;;;;;;;;5030235;28;20262;-72
2022/06/02 04:10:20;;;;;;;31.73;27.50;;;;;;;;;;5035276;28;20694;-72
2022/06/02 04:15:51;;;;;;;31.40;27.37;;;;;;;;;;5033999;28;20231;-72
2022/06/02 04:18:24;;;;;;;29.47;25.73;;;;;;;;;;5028840;28;20211;-72
2022/06/02 04:21:02;;;;;;;30.13;26.37;;;;;;;;;;5034521;28;20195;-72
2022/06/02 04:23:40;;;;;;;28.80;25.70;;;;;;;;;;5029671;28;20233;-71
2022/06/02 04:26:17;;;;;;;30.37;26.53;;;;;;;;;;5030635;28;20234;-72
2022/06/02 04:28:48;;;;;;;28.70;24.67;;;;;;;;;;5035589;28;20204;-72
2022/06/02 04:31:25;;;;;;;28.80;25.27;;;;;;;;;;5034243;28;20228;-72
2022/06/02 04:33:57;;;;;;;29.40;25.83;;;;;;;;;;5033961;28;20200;-72
2022/06/02 04:36:29;;;;;;;31.27;26.53;;;;;;;;;;5034366;28;20257;-72
2022/06/02 04:39:02;;;;;;;29.43;25.43;;;;;;;;;;5034668;28;20242;-72
2022/06/02 04:41:33;;;;;;;30.00;25.23;;;;;;;;;;5031002;28;20207;-72
2022/06/02 04:44:08;;;;;;;28.20;24.93;;;;;;;;;;5029719;28;20210;-72
2022/06/02 04:46:43;;;;;;;30.30;25.77;;;;;;;;;;5035551;28;20220;-72
2022/06/02 04:49:16;;;;;;;33.40;28.27;;;;;;;;;;5033639;28;20210;-72
2022/06/02 04:51:50;;;;;;;31.77;27.47;;;;;;;;;;5036449;28;20200;-72
2022/06/02 04:54:26;;;;;;;34.90;28.47;;;;;;;;;;5030506;28;20269;-73
2022/06/02 04:57:04;;;;;;;30.50;25.60;;;;;;;;;;5031945;28;20207;-72
2022/06/02 04:59:37;;;;;;;31.77;27.20;;;;;;;;;;5032611;28;20219;-72
2022/06/02 05:02:07;;;;;;;31.63;26.90;;;;;;;;;;5035322;28;20253;-72
2022/06/02 05:04:40;;;;;;;33.00;27.13;;;;;;;;;;5027997;28;20294;-72
2022/06/02 05:07:12;;;;;;;29.67;26.03;;;;;;;;;;5029235;28;20200;-72
2022/06/02 05:09:46;;;;;;;34.60;27.53;;;;;;;;;;5044186;28;20272;-72
2022/06/02 05:12:19;;;;;;;29.53;26.20;;;;;;;;;;5032031;28;20207;-72
2022/06/02 05:14:53;;;;;;;30.43;26.10;;;;;;;;;;5028046;28;20223;-72
2022/06/02 05:17:29;;;;;;;28.83;25.77;;;;;;;;;;5029408;28;20261;-72
2022/06/02 05:20:10;;;;;;;30.10;25.93;;;;;;;;;;5044091;28;20242;-72
2022/06/02 05:22:55;;;;;;;26.80;23.90;;;;;;;;;;5030535;28;20204;-72
2022/06/02 05:25:33;;;;;;;27.33;24.03;;;;;;;;;;5027614;28;20220;-72
2022/06/02 05:28:23;;;;;;;27.67;24.70;;;;;;;;;;5039011;28;20685;-72
2022/06/02 05:31:03;;;;;;;27.33;23.87;;;;;;;;;;5029061;28;20224;-73
2022/06/02 05:33:51;;;;;;;24.70;22.03;;;;;;;;;;5030150;28;20290;-72
2022/06/02 05:36:27;;;;;;;25.30;22.63;;;;;;;;;;5030740;28;20281;-72
2022/06/02 05:39:01;;;;;;;25.03;22.23;;;;;;;;;;5031082;28;20203;-72
2022/06/02 05:41:37;;;;;;;22.53;20.23;;;;;;;;;;5028937;28;20200;-72
2022/06/02 05:44:11;;;;;;;22.77;20.57;;;;;;;;;;5025383;28;20230;-72
2022/06/02 05:46:53;;;;;;;21.97;19.63;;;;;;;;;;5027559;28;20204;-72
2022/06/02 05:49:26;;;;;;;22.10;19.83;;;;;;;;;;5042632;28;20203;-72
2022/06/02 05:52:01;;;;;;;18.87;17.07;;;;;;;;;;5035957;28;20226;-72
2022/06/02 05:54:36;;;;;;;20.30;18.07;;;;;;;;;;5033433;28;20235;-72
2022/06/02 05:57:13;;;;;;;20.93;18.80;;;;;;;;;;5028862;28;20748;-73
2022/06/02 05:59:52;;;;;;;19.50;17.23;;;;;;;;;;5040996;28;20688;-72
2022/06/02 06:02:39;;;;;;;18.67;16.77;;;;;;;;;;5032365;28;20202;-72
2022/06/02 06:05:14;;;;;;;18.03;16.20;;;;;;;;;;5034284;28;20244;-71
2022/06/02 06:07:52;;;;;;;17.53;15.70;;;;;;;;;;5032994;28;20203;-72
2022/06/02 06:10:24;;;;;;;17.93;14.90;;;;;;;;;;5030565;28;20740;-71
2022/06/02 06:13:08;;;;;;;16.27;14.70;;;;;;;;;;5033938;28;20258;-71
2022/06/02 06:15:42;;;;;;;18.03;14.93;;;;;;;;;;5029673;28;20765;-72
2022/06/02 06:18:17;;;;;;;17.73;13.97;;;;;;;;;;5028872;28;20203;-72
2022/06/02 06:20:54;;;;;;;14.43;13.07;;;;;;;;;;5029996;28;20199;-72
2022/06/02 06:23:38;;;;;;;13.43;12.23;;;;;;;;;;5032456;28;20234;-72
2022/06/02 06:26:15;;;;;;;13.23;11.93;;;;;;;;;;5030641;28;20265;-72
2022/06/02 06:28:47;;;;;;;11.17;10.20;;;;;;;;;;5042265;28;20195;-72
2022/06/02 06:31:21;;;;;;;11.47;10.33;;;;;;;;;;5033123;28;20691;-72
2022/06/02 06:33:57;;;;;;;9.80;8.87;;;;;;;;;;5027057;28;20265;-72
2022/06/02 06:36:39;;;;;;;11.13;10.03;;;;;;;;;;5038591;28;20203;-73
2022/06/02 06:39:14;;;;;;;11.90;10.70;;;;;;;;;;5035793;28;20208;-72
2022/06/02 06:41:48;;;;;;;11.40;10.37;;;;;;;;;;5037494;28;20543;-72
2022/06/02 06:44:22;;;;;;;11.17;10.23;;;;;;;;;;5040418;28;20215;-72
2022/06/02 06:46:57;;;;;;;11.23;10.03;;;;;;;;;;5028985;28;20261;-72
2022/06/02 06:49:33;;;;;;;9.90;9.00;;;;;;;;;;5035476;28;20199;-72
2022/06/02 06:52:09;;;;;;;10.07;8.67;;;;;;;;;;5030904;28;20219;-72
2022/06/02 06:54:42;;;;;;;8.97;7.90;;;;;;;;;;5027264;28;20223;-72
2022/06/02 06:57:12;;;;;;;9.50;8.53;;;;;;;;;;5032340;28;20204;-72
2022/06/02 06:59:48;;;;;;;8.80;8.00;;;;;;;;;;5038918;28;20208;-72
2022/06/02 07:02:24;;;;;;;8.93;8.03;;;;;;;;;;5030465;28;20244;-71
2022/06/02 07:04:55;;;;;;;8.83;7.93;;;;;;;;;;5032568;28;20235;-72
2022/06/02 07:07:26;;;;;;;7.67;6.83;;;;;;;;;;5029392;28;20243;-72
2022/06/02 07:09:58;;;;;;;6.43;5.83;;;;;;;;;;5030327;28;20211;-72
2022/06/02 07:15:21;;;;;;;6.60;6.00;;;;;;;;;;5024049;28;20236;-72
2022/06/02 07:17:56;;;;;;;7.00;6.30;;;;;;;;;;5026658;28;20622;-73
2022/06/02 07:20:38;;;;;;;7.50;5.87;;;;;;;;;;5039064;28;20310;-72
2022/06/02 07:23:11;;;;;;;6.93;5.07;;;;;;;;;;5030298;28;20208;-72
2022/06/02 07:25:45;;;;;;;7.07;6.33;;;;;;;;;;5010549;28;20308;-72
2022/06/02 07:28:18;;;;;;;6.73;5.00;;;;;;;;;;5031570;28;20922;-72
2022/06/02 07:30:54;;;;;;;5.57;5.03;;;;;;;;;;5035195;28;20215;-72
2022/06/02 07:33:28;;;;;;;5.77;4.80;;;;;;;;;;5045635;28;20252;-72
2022/06/02 07:36:06;;;;;;;5.27;4.77;;;;;;;;;;5035800;28;20272;-72
2022/06/02 07:38:41;;;;;;;6.37;5.00;;;;;;;;;;5043451;28;20207;-73
2022/06/02 07:41:17;;;;;;;8.48;4.53;;;;;;;;;;5036642;28;20203;-72
2022/06/02 07:44:06;;;;;;;6.00;4.82;;;;;;;;;;5034657;28;20203;-72
2022/06/02 07:46:44;;;;;;;4.90;4.47;;;;;;;;;;5034650;28;20528;-72
2022/06/02 07:49:28;;;;;;;5.28;4.20;;;;;;;;;;5043529;28;20204;-72
2022/06/02 07:51:59;;;;;;;4.20;3.90;;;;;;;;;;5033367;28;20215;-72
2022/06/02 07:54:38;;;;;;;5.00;4.53;;;;;;;;;;5035959;28;20237;-72
2022/06/02 07:57:14;;;;;;;5.53;4.70;;;;;;;;;;5034303;28;21815;-72
2022/06/02 07:59:50;;;;;;;4.67;4.20;;;;;;;;;;5045631;28;20214;-72
2022/06/02 08:02:29;;;;;;;5.88;4.28;;;;;;;;;;5028763;28;20598;-71
2022/06/02 08:05:10;;;;;;;5.72;4.40;;;;;;;;;;5035076;28;20235;-72
2022/06/02 08:07:41;;;;;;;6.38;4.70;;;;;;;;;;5034776;28;20247;-72
2022/06/02 08:10:14;;;;;;;4.45;3.22;;;;;;;;;;5040597;28;20309;-72
2022/06/02 08:12:49;;;;;;;5.63;3.90;;;;;;;;;;5042799;28;20618;-72
2022/06/02 08:15:30;;;;;;;5.93;4.05;;;;;;;;;;5037652;28;20223;-72
2022/06/02 08:18:00;;;;;;;3.78;3.45;;;;;;;;;;5035361;28;20219;-73
2022/06/02 08:20:44;;;;;;;3.53;3.22;;;;;;;;;;5041379;28;20261;-72
2022/06/02 08:23:15;;;;;;;4.90;3.30;;;;;;;;;;5037536;28;20200;-72
2022/06/02 08:25:51;;;;;;;3.58;3.28;;;;;;;;;;5035078;28;20230;-73
2022/06/02 08:28:32;;;;;;;3.28;2.70;;;;;;;;;;5031182;28;20252;-73
2022/06/02 08:31:06;;;;;;;3.03;2.55;;;;;;;;;;5034052;28;20204;-72
2022/06/02 08:33:39;;;;;;;3.40;3.03;;;;;;;;;;5039143;28;20195;-71
2022/06/02 08:36:14;;;;;;;3.42;3.13;;;;;;;;;;5035592;28;20227;-72
2022/06/02 08:38:55;;;;;;;3.63;3.33;;;;;;;;;;5032558;28;20218;-72
2022/06/02 08:41:36;;;;;;;3.50;3.03;;;;;;;;;;5034079;28;20215;-73
2022/06/02 08:44:23;;;;;;;3.75;3.42;;;;;;;;;;5034178;28;20204;-72
2022/06/02 08:47:06;;;;;;;3.45;3.13;;;;;;;;;;5033857;28;20204;-73
2022/06/02 08:49:54;;;;;;;3.30;2.85;;;;;;;;;;5044177;28;20266;-73
2022/06/02 08:52:49;;;;;;;3.67;2.70;;;;;;;;;;5030498;28;20580;-72
2022/06/02 08:55:38;;;;;;;2.85;2.50;;;;;;;;;;4992535;28;20224;-73
2022/06/02 08:58:35;;;;;;;3.22;2.58;;;;;;;;;;5028016;28;20191;-72
2022/06/02 09:01:10;;;;;;;3.58;2.63;;;;;;;;;;5034626;28;20667;-73
2022/06/02 09:04:11;;;;;;;3.40;3.00;;;;;;;;;;5033518;28;20242;-72
2022/06/02 09:07:07;;;;;;;2.67;2.15;;;;;;;;;;4993342;28;20209;-73
2022/06/02 09:10:12;;;;;;;2.40;2.20;;;;;;;;;;4989525;28;20290;-72
2022/06/02 09:12:54;;;;;;;3.17;2.22;;;;;;;;;;5030041;28;20227;-72
2022/06/02 09:15:49;;;;;;;3.10;2.10;;;;;;;;;;5033964;28;20238;-73
2022/06/02 09:18:42;;;;;;;2.80;2.50;;;;;;;;;;5030278;28;20192;-72
2022/06/02 09:21:35;;;;;;;4.32;2.70;;;;;;;;;;5031924;28;20285;-72
2022/06/02 09:24:07;;;;;;;3.67;2.70;;;;;;;;;;5033362;28;20564;-73
2022/06/02 09:26:54;;;;;;;3.00;2.30;;;;;;;;;;5035268;28;20266;-72
2022/06/02 09:29:25;;;;;;;4.78;3.50;;;;;;;;;;5032437;28;20199;-72
2022/06/02 09:32:00;;;;;;;4.25;3.85;;;;;;;;;;5033212;28;20214;-72
2022/06/02 09:34:47;;;;;;;3.92;3.50;;;;;;;;;;5029957;28;20231;-73
2022/06/02 09:37:28;;;;;;;4.35;3.15;;;;;;;;;;5022143;28;20208;-73
2022/06/02 09:40:04;;;;;;;5.93;3.67;;;;;;;;;;5032346;28;20266;-72
2022/06/02 09:42:50;;;;;;;6.55;5.43;;;;;;;;;;5035490;28;20249;-72
2022/06/02 09:45:30;;;;;;;6.40;5.80;;;;;;;;;;5022704;28;20231;-72
2022/06/02 09:48:25;;;;;;;4.50;4.10;;;;;;;;;;5031724;28;20216;-72
2022/06/02 09:50:59;;;;;;;3.00;2.70;;;;;;;;;;5030398;28;20215;-72
2022/06/02 09:53:47;;;;;;;3.08;2.67;;;;;;;;;;5032840;28;20224;-72
2022/06/02 09:56:34;;;;;;;2.85;2.65;;;;;;;;;;5029036;28;20230;-72
2022/06/02 09:59:10;;;;;;;3.75;2.90;;;;;;;;;;5029417;28;20202;-73
2022/06/02 10:01:56;;;;;;;5.75;3.30;;;;;;;;;;5031376;28;20214;-72
2022/06/02 10:04:39;;;;;;;3.78;3.38;;;;;;;;;;5017598;28;20266;-72
2022/06/02 10:07:15;;;;;;;3.38;2.65;;;;;;;;;;5032321;28;20200;-72
2022/06/02 10:09:58;;;;;;;3.20;2.90;;;;;;;;;;5038944;28;20203;-72
2022/06/02 10:13:05;;;;;;;2.60;2.40;;;;;;;;;;5036669;28;20233;-72
2022/06/02 10:15:54;;;;;;;3.17;2.70;;;;;;;;;;5035623;28;20571;-72
2022/06/02 10:18:32;;;;;;;4.05;2.30;;;;;;;;;;5027049;28;20204;-71
2022/06/02 10:21:08;;;;;;;3.28;2.97;;;;;;;;;;5030900;28;20230;-72
2022/06/02 10:23:55;;;;;;;5.50;5.07;;;;;;;;;;5033391;28;20207;-72
2022/06/02 10:26:31;;;;;;;6.28;5.68;;;;;;;;;;5031616;28;20250;-72
2022/06/02 10:29:18;;;;;;;4.75;3.55;;;;;;;;;;5039052;28;20236;-72
2022/06/02 10:32:07;;;;;;;3.33;2.80;;;;;;;;;;4995439;28;20933;-72
2022/06/02 10:34:47;;;;;;;5.25;3.97;;;;;;;;;;5016872;28;20220;-71
2022/06/02 10:37:34;;;;;;;4.18;3.55;;;;;;;;;;5031808;28;20207;-72
2022/06/02 10:40:12;;;;;;;3.67;2.70;;;;;;;;;;5036825;28;20212;-72
2022/06/02 10:42:53;;;;;;;2.45;2.10;;;;;;;;;;5031500;28;20460;-72
2022/06/02 10:45:42;;;;;;;2.75;2.10;;;;;;;;;;5027516;28;20643;-72
2022/06/02 10:48:27;;;;;;;2.97;2.20;;;;;;;;;;5025369;28;20227;-73
2022/06/02 10:51:08;;;;;;;3.20;2.50;;;;;;;;;;5029212;28;20671;-73
2022/06/02 10:53:58;;;;;;;3.08;2.55;;;;;;;;;;5032717;28;20546;-72
2022/06/02 10:56:38;;;;;;;3.58;2.80;;;;;;;;;;5029613;28;20200;-72
2022/06/02 10:59:20;;;;;;;3.05;2.70;;;;;;;;;;5031354;28;20944;-72
2022/06/02 11:02:06;;;;;;;2.95;2.70;;;;;;;;;;5028047;28;20751;-72
2022/06/02 11:04:51;;;;;;;2.47;2.08;;;;;;;;;;5038868;28;20227;-72
2022/06/02 11:07:39;;;;;;;2.70;2.50;;;;;;;;;;5030611;28;20207;-72
2022/06/02 11:10:24;;;;;;;3.15;2.85;;;;;;;;;;5036514;28;20257;-73
2022/06/02 11:13:14;;;;;;;3.67;3.38;;;;;;;;;;5043468;28;20230;-72
2022/06/02 11:15:54;;;;;;;3.72;2.72;;;;;;;;;;5038188;28;20231;-72
2022/06/02 11:18:41;;;;;;;2.50;2.20;;;;;;;;;;5035813;28;20221;-72
2022/06/02 11:21:24;;;;;;;2.90;1.98;;;;;;;;;;5034311;28;20215;-72
2022/06/02 11:24:02;;;;;;;5.38;2.97;;;;;;;;;;5034741;28;20207;-73
2022/06/02 11:26:52;;;;;;;2.05;1.95;;;;;;;;;;5033970;28;20222;-71
2022/06/02 11:29:35;;;;;;;2.25;1.80;;;;;;;;;;5026919;28;20207;-72
2022/06/02 11:32:12;;;;;;;2.05;1.85;;;;;;;;;;5036859;28;20206;-71
2022/06/02 11:35:01;;;;;;;2.08;1.80;;;;;;;;;;5045797;28;20227;-71
2022/06/02 11:37:39;;;;;;;2.55;1.83;;;;;;;;;;5028478;28;20215;-72
2022/06/02 11:40:33;;;;;;;1.73;1.60;;;;;;;;;;5025609;28;20239;-72
2022/06/02 11:43:13;;;;;;;2.17;1.58;;;;;;;;;;5035384;28;20211;-72
2022/06/02 11:45:55;;;;;;;2.70;1.80;;;;;;;;;;5037104;28;20278;-71
2022/06/02 11:48:40;;;;;;;4.45;1.63;;;;;;;;;;5032616;28;20211;-72
2022/06/02 11:51:20;;;;;;;1.60;1.48;;;;;;;;;;5036952;28;20590;-72
2022/06/02 11:54:09;;;;;;;2.88;1.75;;;;;;;;;;5037957;28;20234;-72
2022/06/02 11:56:42;;;;;;;2.65;2.00;;;;;;;;;;5037057;28;20215;-72
2022/06/02 11:59:37;;;;;;;3.65;2.10;;;;;;;;;;5033322;28;20231;-72
2022/06/02 12:02:19;;;;;;;2.10;1.70;;;;;;;;;;5000891;28;20206;-71
2022/06/02 12:05:11;;;;;;;1.98;1.83;;;;;;;;;;5031496;28;20792;-72
2022/06/02 12:07:58;;;;;;;2.05;1.80;;;;;;;;;;5035630;28;20294;-71
2022/06/02 12:10:44;;;;;;;2.13;1.83;;;;;;;;;;5036433;28;20214;-71
2022/06/02 12:13:30;;;;;;;2.30;1.75;;;;;;;;;;5028462;28;20250;-72
2022/06/02 12:16:24;;;;;;;2.50;1.58;;;;;;;;;;5032441;28;20249;-71
2022/06/02 12:19:03;;;;;;;1.70;1.60;;;;;;;;;;5042070;28;20223;-72
2022/06/02 12:21:46;;;;;;;1.95;1.85;;;;;;;;;;5035764;28;20265;-71
2022/06/02 12:24:28;;;;;;;2.10;1.60;;;;;;;;;;5034537;28;20196;-72
2022/06/02 12:27:06;;;;;;;2.17;1.50;;;;;;;;;;5034683;28;20207;-72
2022/06/02 12:29:46;;;;;;;3.58;1.60;;;;;;;;;;5037105;28;20286;-72
2022/06/02 12:32:46;;;;;;;4.20;1.70;;;;;;;;;;5033575;28;20212;-71
2022/06/02 12:35:41;;;;;;;2.38;1.60;;;;;;;;;;5033996;28;20238;-72
2022/06/02 12:38:28;;;;;;;1.95;1.85;;;;;;;;;;5029150;28;20262;-71
2022/06/02 12:41:06;;;;;;;2.20;1.55;;;;;;;;;;5035987;28;20253;-72
2022/06/02 12:44:02;;;;;;;3.13;1.90;;;;;;;;;;5045941;28;20195;-71
2022/06/02 12:46:42;;;;;;;2.28;2.00;;;;;;;;;;4987003;28;20238;-71
2022/06/02 12:49:33;;;;;;;3.28;1.55;;;;;;;;;;5032799;28;20682;-72
2022/06/02 12:52:11;;;;;;;3.88;1.60;;;;;;;;;;5024651;28;20196;-71
2022/06/02 12:54:57;;;;;;;4.82;1.70;;;;;;;;;;5025504;28;20234;-71
2022/06/02 12:57:44;;;;;;;2.80;1.70;;;;;;;;;;5035609;28;20283;-72
2022/06/02 13:00:21;;;;;;;5.07;1.98;;;;;;;;;;5032618;28;20215;-71
2022/06/02 13:03:22;;;;;;;2.47;1.90;;;;;;;;;;5024568;28;20228;-71
2022/06/02 13:06:03;;;;;;;2.42;2.00;;;;;;;;;;5037935;28;20241;-72
2022/06/02 13:08:43;;;;;;;1.85;1.70;;;;;;;;;;5030462;28;20215;-72
2022/06/02 13:11:26;;;;;;;2.17;1.98;;;;;;;;;;5033030;28;20230;-71
2022/06/02 13:14:05;;;;;;;1.80;1.70;;;;;;;;;;5024872;28;20311;-72
2022/06/02 13:16:45;;;;;;;2.30;2.10;;;;;;;;;;5034230;28;20265;-71
2022/06/02 13:19:36;;;;;;;3.05;1.80;;;;;;;;;;5033805;28;20200;-72
2022/06/02 13:22:17;;;;;;;3.28;2.03;;;;;;;;;;5036400;28;20210;-72
2022/06/02 13:25:03;;;;;;;2.47;2.25;;;;;;;;;;5033948;28;20265;-71
2022/06/02 13:27:39;;;;;;;2.30;2.10;;;;;;;;;;5037062;28;20211;-71
2022/06/02 13:30:22;;;;;;;2.30;2.00;;;;;;;;;;5029530;28;20215;-72
2022/06/02 13:33:19;;;;;;;1.83;1.73;;;;;;;;;;5046139;28;20206;-71
2022/06/02 13:35:56;;;;;;;3.03;1.90;;;;;;;;;;5031675;28;20227;-71
2022/06/02 13:38:35;;;;;;;4.47;1.60;;;;;;;;;;5022042;28;20203;-71
2022/06/02 13:41:16;;;;;;;1.92;1.65;;;;;;;;;;5037057;28;20213;-71
2022/06/02 13:43:56;;;;;;;2.38;1.90;;;;;;;;;;5045267;28;20207;-71
2022/06/02 13:46:40;;;;;;;1.90;1.70;;;;;;;;;;5035417;28;20709;-72
2022/06/02 13:49:21;;;;;;;2.13;1.92;;;;;;;;;;5044306;28;20204;-71
2022/06/02 13:52:09;;;;;;;2.55;2.03;;;;;;;;;;5029362;28;20651;-71
2022/06/02 13:57:50;;;;;;;2.00;1.70;;;;;;;;;;5033434;28;20203;-72
2022/06/02 14:00:21;;;;;;;2.45;1.90;;;;;;;;;;5029388;28;20207;-72
2022/06/02 14:02:58;;;;;;;3.75;1.80;;;;;;;;;;5045526;28;20217;-72
2022/06/02 14:05:36;;;;;;;3.60;2.30;;;;;;;;;;5034928;28;20297;-72
2022/06/02 14:08:17;;;;;;;2.40;2.20;;;;;;;;;;5032509;28;20199;-72
2022/06/02 14:10:58;;;;;;;2.30;2.03;;;;;;;;;;5031762;28;20223;-72
2022/06/02 14:13:34;;;;;;;1.58;1.48;;;;;;;;;;5032417;28;20208;-72
2022/06/02 14:16:08;;;;;;;3.95;1.50;;;;;;;;;;5032615;28;20626;-72
2022/06/02 14:18:51;;;;;;;1.77;1.50;;;;;;;;;;5031113;28;20203;-72
2022/06/02 14:21:27;;;;;;;3.03;1.50;;;;;;;;;;5028023;28;20647;-72
2022/06/02 14:24:01;;;;;;;2.75;1.80;;;;;;;;;;5033363;28;20203;-72
2022/06/02 14:26:36;;;;;;;1.60;1.50;;;;;;;;;;5033290;28;20200;-71
2022/06/02 14:29:17;;;;;;;1.92;1.83;;;;;;;;;;5030668;28;20211;-72
2022/06/02 14:31:53;;;;;;;2.58;1.60;;;;;;;;;;5035514;28;20207;-71
2022/06/02 14:34:27;;;;;;;2.65;1.90;;;;;;;;;;5029232;28;20227;-72
2022/06/02 14:37:00;;;;;;;3.00;1.95;;;;;;;;;;4679587;28;10000139;-72
2022/06/02 14:39:34;;;;;;;3.42;1.80;;;;;;;;;;5028713;28;20656;-71
2022/06/02 14:42:23;;;;;;;2.65;1.63;;;;;;;;;;5025599;28;20203;-72
2022/06/02 14:44:56;;;;;;;1.67;1.58;;;;;;;;;;5027108;28;20746;-71
2022/06/02 14:47:29;;;;;;;2.13;1.58;;;;;;;;;;5030683;28;20285;-72
2022/06/02 14:50:22;;;;;;;2.70;1.55;;;;;;;;;;5028784;28;20231;-71
2022/06/02 14:53:02;;;;;;;2.13;1.50;;;;;;;;;;5033588;28;20208;-72
2022/06/02 14:55:33;;;;;;;1.92;1.50;;;;;;;;;;5028623;28;20224;-72
2022/06/02 14:58:06;;;;;;;1.65;1.55;;;;;;;;;;5027541;28;20266;-71
2022/06/02 15:00:42;;;;;;;1.88;1.40;;;;;;;;;;5032581;28;20604;-71
2022/06/02 15:03:25;;;;;;;3.80;1.70;;;;;;;;;;5046131;28;20209;-72
2022/06/02 15:05:55;;;;;;;1.50;1.30;;;;;;;;;;5035074;28;20268;-72
2022/06/02 15:08:38;;;;;;;4.65;1.63;;;;;;;;;;5038579;28;20210;-72
2022/06/02 15:11:09;;;;;;;2.35;1.30;;;;;;;;;;5032795;28;20204;-72
2022/06/02 15:13:47;;;;;;;1.52;1.27;;;;;;;;;;5031313;28;20203;-71
2022/06/02 15:16:28;;;;;;;1.23;1.13;;;;;;;;;;5033272;28;20587;-72
2022/06/02 15:19:13;;;;;;;1.98;1.48;;;;;;;;;;5031000;28;20634;-72
2022/06/02 15:22:36;;;;;;;1.83;1.30;;;;;;;;;;5036360;28;20296;-71
2022/06/02 15:25:07;;;;;;;2.33;1.30;;;;;;;;;;5026331;28;20230;-72
2022/06/02 15:27:53;;;;;;;2.20;1.30;;;;;;;;;;5034345;28;20208;-72
2022/06/02 15:30:26;;;;;;;2.28;1.70;;;;;;;;;;5034640;28;20196;-72
2022/06/02 15:33:14;;;;;;;1.52;1.30;;;;;;;;;;5043898;28;20203;-72
2022/06/02 15:35:52;;;;;;;2.65;1.67;;;;;;;;;;5035258;28;20228;-72
2022/06/02 15:38:47;;;;;;;1.50;1.40;;;;;;;;;;5035261;28;20195;-72
2022/06/02 15:41:31;;;;;;;1.30;1.20;;;;;;;;;;5033602;28;20208;-72
2022/06/02 15:44:15;;;;;;;2.38;1.58;;;;;;;;;;5016108;28;20678;-71
2022/06/02 15:47:11;;;;;;;1.88;1.35;;;;;;;;;;5030917;28;20686;-71
2022/06/02 15:49:49;;;;;;;1.50;1.40;;;;;;;;;;5046271;28;20203;-72
2022/06/02 15:52:32;;;;;;;2.85;1.38;;;;;;;;;;5034490;28;20203;-71